Time;durP1;ratioP1;P1;durP2;ratioP2;P2;SDS_P1;SDS_P2;PMS_P1;PMS_P2;Temp;Humidity;BMP_temperature;BMP_pressure;BME280_temperature;BME280_humidity;BME280_pressure;Samples;Min_cycle;Max_cycle;Signal;HPM_P1;HPM_P2
2021/04/29 02:45:36;;;;;;;68.45;34.80;;;12.00;92.90;;;;;;5944884;23;20024;31
2021/04/29 02:48:03;;;;;;;75.82;35.75;;;12.10;93.10;;;;;;4861372;29;20344;-71
2021/04/29 02:50:29;;;;;;;75.57;37.88;;;12.20;92.80;;;;;;4852013;29;20103;-71
2021/04/29 02:52:57;;;;;;;65.45;35.08;;;12.20;92.90;;;;;;4870239;29;20033;-71
2021/04/29 02:55:23;;;;;;;64.95;36.08;;;12.30;93.00;;;;;;4857533;29;20034;-70
2021/04/29 02:57:50;;;;;;;75.50;38.55;;;12.30;93.00;;;;;;4865187;29;20336;-71
2021/04/29 03:00:18;;;;;;;69.97;36.27;;;12.40;93.20;;;;;;4878432;29;20255;-71
2021/04/29 03:02:44;;;;;;;71.82;38.33;;;12.30;93.20;;;;;;4873126;29;20057;-71
2021/04/29 03:05:12;;;;;;;68.90;36.27;;;12.40;93.20;;;;;;4862465;29;20220;-71
2021/04/29 03:07:39;;;;;;;71.03;37.50;;;12.50;93.20;;;;;;4861150;29;20017;-71
2021/04/29 03:10:06;;;;;;;68.43;35.45;;;12.50;93.30;;;;;;4869128;29;20025;-71
2021/04/29 03:12:32;;;;;;;67.80;36.42;;;12.60;93.20;;;;;;4854848;29;20065;-71
2021/04/29 03:14:58;;;;;;;74.40;36.28;;;12.60;93.20;;;;;;4854624;29;20096;-71
2021/04/29 03:17:24;;;;;;;64.88;36.05;;;12.60;93.30;;;;;;4857734;29;20038;-71
2021/04/29 03:19:50;;;;;;;70.65;34.45;;;12.70;93.50;;;;;;4858654;29;20036;-71
2021/04/29 03:22:16;;;;;;;60.22;34.78;;;12.60;93.10;;;;;;4869019;29;20262;-71
2021/04/29 03:24:42;;;;;;;66.97;36.38;;;12.70;93.10;;;;;;4869957;29;20022;-71
2021/04/29 03:27:07;;;;;;;70.45;37.08;;;12.60;93.10;;;;;;4883791;29;20032;-71
2021/04/29 03:29:33;;;;;;;69.22;37.33;;;12.70;93.00;;;;;;4854633;29;20109;-71
2021/04/29 03:31:59;;;;;;;73.18;34.22;;;12.70;93.00;;;;;;4864841;29;20042;-71
2021/04/29 03:34:25;;;;;;;69.00;36.53;;;12.70;93.10;;;;;;4868047;29;20072;-70
2021/04/29 03:36:50;;;;;;;69.72;36.35;;;12.70;93.20;;;;;;4854519;29;20030;-71
2021/04/29 03:39:16;;;;;;;68.00;37.03;;;12.70;93.10;;;;;;4865425;29;20028;-71
2021/04/29 03:41:42;;;;;;;72.13;37.13;;;12.80;93.00;;;;;;4870290;29;20116;-71
2021/04/29 03:44:07;;;;;;;71.65;36.25;;;12.80;93.00;;;;;;4865198;29;20110;-71
2021/04/29 03:46:33;;;;;;;62.17;33.85;;;12.80;92.90;;;;;;4869979;29;20120;-71
2021/04/29 03:48:59;;;;;;;62.47;34.58;;;12.80;92.90;;;;;;4887062;29;20058;-71
2021/04/29 03:51:24;;;;;;;66.60;34.60;;;12.80;92.80;;;;;;4889935;29;20029;-71
2021/04/29 03:53:50;;;;;;;65.85;35.75;;;12.90;92.70;;;;;;4889379;29;20028;-71
2021/04/29 03:56:16;;;;;;;71.43;36.92;;;12.90;92.60;;;;;;4886420;29;20301;-71
2021/04/29 03:58:42;;;;;;;74.85;36.83;;;12.90;92.50;;;;;;4877559;29;20025;-71
2021/04/29 04:01:07;;;;;;;64.40;36.08;;;12.90;92.60;;;;;;4870912;29;20332;-70
2021/04/29 04:03:33;;;;;;;64.80;35.20;;;12.90;92.60;;;;;;4884717;29;20061;-72
2021/04/29 04:05:59;;;;;;;63.90;36.38;;;12.90;92.60;;;;;;4888728;29;20025;-71
2021/04/29 04:08:25;;;;;;;70.63;36.03;;;13.00;92.40;;;;;;4874066;29;20233;-72
2021/04/29 04:10:50;;;;;;;76.18;37.42;;;13.00;92.30;;;;;;4878378;29;20205;-71
2021/04/29 04:13:18;;;;;;;72.88;38.58;;;13.00;92.30;;;;;;4888078;29;20298;-71
2021/04/29 04:15:44;;;;;;;75.65;38.20;;;13.00;92.30;;;;;;4883193;29;20029;-71
2021/04/29 04:18:09;;;;;;;70.43;37.03;;;13.00;92.40;;;;;;4882292;29;20093;-71
2021/04/29 04:20:35;;;;;;;73.35;38.53;;;13.00;92.40;;;;;;4877993;29;20384;-71
2021/04/29 04:23:01;;;;;;;75.18;36.60;;;12.90;92.50;;;;;;4873553;29;20213;-71
2021/04/29 04:25:27;;;;;;;75.05;38.85;;;13.00;92.50;;;;;;4871461;29;20212;-71
2021/04/29 04:27:53;;;;;;;68.78;36.40;;;13.00;92.40;;;;;;4871996;29;20033;-71
2021/04/29 04:30:18;;;;;;;73.03;36.97;;;13.10;92.30;;;;;;4883085;29;20036;-71
2021/04/29 04:32:44;;;;;;;73.15;37.78;;;13.00;92.60;;;;;;4874098;29;20029;-71
2021/04/29 04:35:10;;;;;;;73.57;39.80;;;13.00;92.30;;;;;;4880071;29;20033;-71
2021/04/29 04:37:36;;;;;;;70.38;39.63;;;13.10;92.20;;;;;;4885445;29;20036;-71
2021/04/29 04:40:04;;;;;;;68.00;36.20;;;13.10;92.20;;;;;;4885762;29;20092;-72
2021/04/29 04:42:29;;;;;;;64.28;34.10;;;13.10;92.10;;;;;;4878388;29;20057;-71
2021/04/29 04:44:55;;;;;;;75.07;39.20;;;13.10;92.00;;;;;;4889176;29;20029;-71
2021/04/29 04:47:21;;;;;;;74.68;38.97;;;13.10;91.90;;;;;;4884573;29;20056;-75
2021/04/29 04:49:46;;;;;;;73.90;37.92;;;13.10;92.10;;;;;;4884172;29;20017;-71
2021/04/29 04:52:12;;;;;;;78.47;39.65;;;13.10;92.00;;;;;;4881738;29;20024;-70
2021/04/29 04:54:38;;;;;;;77.32;39.08;;;13.10;92.00;;;;;;4883991;29;20039;-72
2021/04/29 04:57:04;;;;;;;66.93;37.33;;;13.10;92.00;;;;;;4882616;29;20037;-70
2021/04/29 04:59:30;;;;;;;73.43;37.07;;;13.10;91.90;;;;;;4898248;29;20021;-70
2021/04/29 05:01:56;;;;;;;69.03;37.85;;;13.20;91.90;;;;;;4881709;29;20044;-70
2021/04/29 05:04:27;;;;;;;68.18;33.70;;;13.20;91.80;;;;;;4872894;29;20021;-70
2021/04/29 05:06:54;;;;;;;71.20;36.33;;;13.30;91.90;;;;;;4876467;29;20025;-70
2021/04/29 05:09:20;;;;;;;;;;;13.30;91.70;;;;;;4885429;29;20056;-70
2021/04/29 05:11:46;;;;;;;65.23;34.40;;;13.30;91.60;;;;;;4881481;29;19956;-71
2021/04/29 05:14:12;;;;;;;72.70;38.33;;;13.40;91.40;;;;;;4878395;29;20181;-71
2021/04/29 05:16:38;;;;;;;74.10;37.50;;;13.40;91.30;;;;;;4878139;29;20029;-70
2021/04/29 05:19:04;;;;;;;68.47;34.50;;;13.40;91.30;;;;;;4876517;29;20092;-70
2021/04/29 05:21:29;;;;;;;69.10;35.83;;;13.30;91.40;;;;;;4885616;29;20332;-71
2021/04/29 05:23:55;;;;;;;70.90;35.40;;;13.40;91.50;;;;;;4884851;29;20034;-70
2021/04/29 05:26:21;;;;;;;66.20;35.78;;;13.40;91.40;;;;;;4877211;29;20022;-71
2021/04/29 05:28:47;;;;;;;67.35;35.40;;;13.40;91.40;;;;;;4879050;29;20292;-71
2021/04/29 05:31:12;;;;;;;64.63;35.33;;;13.50;91.30;;;;;;4888673;29;20316;-71
2021/04/29 05:33:38;;;;;;;77.63;37.05;;;13.50;91.20;;;;;;4885703;29;20040;-71
2021/04/29 05:36:04;;;;;;;63.05;34.08;;;13.60;91.10;;;;;;4881696;29;20064;-70
2021/04/29 05:38:30;;;;;;;62.35;33.47;;;13.60;91.10;;;;;;4876298;29;20081;-71
2021/04/29 05:40:55;;;;;;;62.58;33.10;;;13.70;91.00;;;;;;4883328;29;20201;-71
2021/04/29 05:43:21;;;;;;;55.90;31.40;;;13.70;90.90;;;;;;4877707;29;20040;-71
2021/04/29 05:45:47;;;;;;;69.40;36.13;;;13.80;90.90;;;;;;4877393;29;20234;-70
2021/04/29 05:48:12;;;;;;;62.88;35.20;;;13.90;90.70;;;;;;4881085;29;20205;-71
2021/04/29 05:50:38;;;;;;;58.13;32.72;;;13.90;90.40;;;;;;4885841;29;20053;-72
2021/04/29 05:53:04;;;;;;;66.85;33.15;;;13.90;90.40;;;;;;4882620;29;20105;-71
2021/04/29 05:55:30;;;;;;;62.30;35.75;;;13.90;90.40;;;;;;4884714;29;20033;-71
2021/04/29 05:57:59;;;;;;;59.38;33.00;;;14.00;90.30;;;;;;4881047;29;20108;-71
2021/04/29 06:00:25;;;;;;;53.25;30.45;;;14.00;90.20;;;;;;4871890;29;20034;-71
2021/04/29 06:02:50;;;;;;;60.22;32.30;;;14.00;90.10;;;;;;4886505;29;20316;-71
2021/04/29 06:05:16;;;;;;;54.70;31.48;;;14.10;90.00;;;;;;4886694;29;20024;-70
2021/04/29 06:07:42;;;;;;;66.22;33.70;;;14.10;89.70;;;;;;4883163;29;20434;-70
2021/04/29 06:10:09;;;;;;;59.35;32.78;;;14.20;89.20;;;;;;4880910;29;20033;-70
2021/04/29 06:12:34;;;;;;;57.00;32.55;;;14.20;89.10;;;;;;4883511;29;20054;-71
2021/04/29 06:15:00;;;;;;;64.70;34.00;;;14.30;89.00;;;;;;4878363;29;20096;-70
2021/04/29 06:17:26;;;;;;;61.97;33.38;;;14.30;88.70;;;;;;4879744;29;20083;-70
2021/04/29 06:19:52;;;;;;;63.97;34.75;;;14.30;88.80;;;;;;4877165;29;20217;-70
2021/04/29 06:22:17;;;;;;;65.82;36.05;;;14.20;88.80;;;;;;4878215;29;20086;-71
2021/04/29 06:24:43;;;;;;;60.03;32.78;;;14.30;89.10;;;;;;4882382;29;20081;-71
2021/04/29 06:27:09;;;;;;;57.70;33.60;;;14.40;88.50;;;;;;4880557;29;20029;-71
2021/04/29 06:29:35;;;;;;;62.85;34.15;;;14.40;88.60;;;;;;4880051;29;20059;-71
2021/04/29 06:32:01;;;;;;;59.10;31.65;;;14.50;88.10;;;;;;4880718;29;20305;-70
2021/04/29 06:34:27;;;;;;;58.00;30.88;;;14.50;88.10;;;;;;4867310;29;20033;-71
2021/04/29 06:36:53;;;;;;;68.53;35.88;;;14.60;87.70;;;;;;4881917;29;20115;-71
2021/04/29 06:39:19;;;;;;;62.03;34.38;;;14.50;87.80;;;;;;4883358;29;20056;-71
2021/04/29 06:41:46;;;;;;;65.25;35.75;;;14.50;87.90;;;;;;4878274;29;20029;-71
2021/04/29 06:44:13;;;;;;;66.75;36.20;;;14.30;88.10;;;;;;4874674;29;20143;-70
2021/04/29 06:46:38;;;;;;;61.77;32.63;;;14.40;88.70;;;;;;4877492;29;20073;-71
2021/04/29 06:49:06;;;;;;;59.15;33.40;;;14.60;88.30;;;;;;4878847;29;20465;-71
2021/04/29 06:51:32;;;;;;;54.92;32.67;;;14.70;87.50;;;;;;4888231;29;20104;-70
2021/04/29 06:53:58;;;;;;;55.75;32.10;;;14.90;86.90;;;;;;4888346;29;20060;-71
2021/04/29 06:56:24;;;;;;;58.53;33.80;;;15.10;86.40;;;;;;4879740;29;20053;-71
2021/04/29 06:58:50;;;;;;;53.78;32.60;;;15.30;85.70;;;;;;4883001;29;20048;-68
2021/04/29 07:01:16;;;;;;;57.35;33.58;;;15.40;84.30;;;;;;4873444;29;20220;-69
2021/04/29 07:03:41;;;;;;;59.88;33.10;;;15.50;84.00;;;;;;4888514;29;20060;-70
2021/04/29 07:06:07;;;;;;;62.42;33.88;;;15.60;84.00;;;;;;4885325;29;20069;-70
2021/04/29 07:08:33;;;;;;;57.00;34.28;;;15.70;82.80;;;;;;4884946;29;20041;-70
2021/04/29 07:10:59;;;;;;;59.42;33.45;;;15.70;82.50;;;;;;4886929;29;20057;-70
2021/04/29 07:13:24;;;;;;;57.90;33.53;;;15.70;82.70;;;;;;4884496;29;20033;-70
2021/04/29 07:15:51;;;;;;;49.53;30.35;;;15.80;82.40;;;;;;4884484;29;20085;-70
2021/04/29 07:18:18;;;;;;;52.38;30.17;;;16.00;81.20;;;;;;4883971;29;20153;-70
2021/04/29 07:20:44;;;;;;;53.60;31.55;;;16.20;80.80;;;;;;4887821;29;20041;-70
2021/04/29 07:23:09;;;;;;;48.00;28.85;;;16.20;79.10;;;;;;4890286;29;20345;-70
2021/04/29 07:25:36;;;;;;;57.40;33.55;;;16.30;79.10;;;;;;4889893;29;20088;-70
2021/04/29 07:28:03;;;;;;;;;;;16.40;78.60;;;;;;4886259;29;20018;-70
2021/04/29 07:30:29;;;;;;;54.72;31.60;;;16.50;78.20;;;;;;4883591;29;19916;-70
2021/04/29 07:32:55;;;;;;;59.13;34.22;;;16.50;78.50;;;;;;4872022;29;20029;-70
2021/04/29 07:35:22;;;;;;;55.47;32.65;;;16.60;78.60;;;;;;4872359;29;20041;-70
2021/04/29 07:37:47;;;;;;;62.20;34.20;;;16.70;77.70;;;;;;4883427;29;20228;-70
2021/04/29 07:40:13;;;;;;;62.92;34.35;;;16.70;76.30;;;;;;4872129;29;20034;-70
2021/04/29 07:42:39;;;;;;;60.72;36.63;;;16.80;76.00;;;;;;4881796;29;20036;-70
2021/04/29 07:45:05;;;;;;;46.33;28.15;;;16.80;75.80;;;;;;4870993;29;20216;-70
2021/04/29 07:47:31;;;;;;;47.67;30.30;;;16.80;76.40;;;;;;4882762;29;20056;-70
2021/04/29 07:49:57;;;;;;;46.67;29.30;;;17.00;76.60;;;;;;4885252;29;20223;-70
2021/04/29 07:52:22;;;;;;;46.10;29.10;;;17.30;76.30;;;;;;4888151;29;20332;-70
2021/04/29 07:54:48;;;;;;;49.80;30.70;;;17.50;75.00;;;;;;4878151;29;20029;-70
2021/04/29 07:57:14;;;;;;;55.03;31.65;;;17.60;74.20;;;;;;4871633;29;20273;-70
2021/04/29 07:59:40;;;;;;;53.90;32.15;;;17.60;73.20;;;;;;4871670;29;20031;-70
2021/04/29 08:02:06;;;;;;;52.40;30.65;;;17.70;73.00;;;;;;4885352;29;20308;-70
2021/04/29 08:04:33;;;;;;;46.60;29.83;;;17.80;74.10;;;;;;4871658;29;20025;-71
2021/04/29 08:06:59;;;;;;;51.50;30.67;;;17.90;73.60;;;;;;4884309;29;20028;-71
2021/04/29 08:09:24;;;;;;;51.95;29.98;;;17.90;71.50;;;;;;4884553;29;20088;-71
2021/04/29 08:11:51;;;;;;;53.85;31.13;;;17.90;73.00;;;;;;4881306;29;20029;-71
2021/04/29 08:14:17;;;;;;;55.10;30.75;;;17.90;73.20;;;;;;4889473;29;20100;-71
2021/04/29 08:16:42;;;;;;;48.05;29.95;;;17.90;72.40;;;;;;4885426;29;20029;-71
2021/04/29 08:19:08;;;;;;;47.65;29.30;;;17.80;73.40;;;;;;4882547;29;20094;-71
2021/04/29 08:21:34;;;;;;;45.10;28.92;;;17.90;72.60;;;;;;4886952;29;20037;-71
2021/04/29 08:24:00;;;;;;;48.40;28.65;;;18.00;72.40;;;;;;4889216;29;20362;-71
2021/04/29 08:26:26;;;;;;;53.92;29.48;;;18.00;71.70;;;;;;4885633;29;20034;-71
2021/04/29 08:28:51;;;;;;;44.72;28.80;;;18.10;71.90;;;;;;4871309;29;20096;-71
2021/04/29 08:31:17;;;;;;;52.97;26.63;;;17.90;70.50;;;;;;4883813;29;20121;-71
2021/04/29 08:33:43;;;;;;;50.90;28.70;;;18.20;71.50;;;;;;4889115;29;20029;-71
2021/04/29 08:36:09;;;;;;;46.35;27.55;;;18.40;69.70;;;;;;4886564;29;20040;-71
2021/04/29 08:38:36;;;;;;;44.78;27.63;;;18.60;69.70;;;;;;4871173;29;20033;-71
2021/04/29 08:41:03;;;;;;;43.28;24.73;;;19.20;68.40;;;;;;4871057;29;20045;-71
2021/04/29 08:43:29;;;;;;;46.92;27.77;;;19.70;67.70;;;;;;4870014;29;20337;-71
2021/04/29 08:45:55;;;;;;;39.40;25.30;;;20.10;64.10;;;;;;4887726;29;20073;-72
2021/04/29 08:48:25;;;;;;;42.42;26.42;;;20.60;63.70;;;;;;4887121;29;20272;-72
2021/04/29 08:50:51;;;;;;;39.20;24.23;;;21.00;61.60;;;;;;4880246;29;20032;-72
2021/04/29 08:53:17;;;;;;;49.47;23.83;;;21.50;58.00;;;;;;4890710;29;20032;-72
2021/04/29 08:55:43;;;;;;;37.57;23.13;;;21.50;57.40;;;;;;4881421;29;20276;-72
2021/04/29 08:58:10;;;;;;;51.10;22.33;;;22.00;55.90;;;;;;4878655;29;20616;-71
2021/04/29 09:00:36;;;;;;;37.10;22.55;;;22.40;55.00;;;;;;4888827;29;20017;-71
2021/04/29 09:03:03;;;;;;;36.92;23.48;;;22.70;54.80;;;;;;4882269;29;20100;-71
2021/04/29 09:05:32;;;;;;;31.42;21.95;;;23.20;53.80;;;;;;4878463;29;20312;-71
2021/04/29 09:08:07;;;;;;;28.35;20.75;;;23.80;53.40;;;;;;4886127;29;20033;-71
2021/04/29 09:10:37;;;;;;;35.72;23.50;;;24.50;51.90;;;;;;4880627;29;20043;-71
2021/04/29 09:13:20;;;;;;;33.28;21.25;;;25.10;50.00;;;;;;4869757;29;20044;-71
2021/04/29 09:15:47;;;;;;;31.67;22.05;;;24.60;48.00;;;;;;4870963;29;20028;-71
2021/04/29 09:18:29;;;;;;;28.65;20.48;;;25.20;48.30;;;;;;4883953;29;20333;-71
2021/04/29 09:21:03;;;;;;;29.92;19.92;;;25.00;49.00;;;;;;4881217;29;20021;-72
2021/04/29 09:23:31;;;;;;;29.33;19.90;;;25.90;46.40;;;;;;4888324;29;20037;-72
2021/04/29 09:25:59;;;;;;;31.15;21.33;;;26.50;44.90;;;;;;4884511;29;20033;-72
2021/04/29 09:28:40;;;;;;;30.75;20.67;;;26.90;44.60;;;;;;4876465;29;20017;-72
2021/04/29 09:31:12;;;;;;;35.67;20.50;;;26.80;40.50;;;;;;4883285;29;20025;-72
2021/04/29 09:33:40;;;;;;;31.45;19.42;;;26.90;42.60;;;;;;4884702;29;20076;-72
2021/04/29 09:36:08;;;;;;;26.52;20.05;;;27.70;41.70;;;;;;4902272;29;20033;-70
2021/04/29 09:38:39;;;;;;;28.17;20.23;;;28.20;41.40;;;;;;4884361;29;20219;-69
2021/04/29 09:41:07;;;;;;;26.27;19.45;;;28.60;39.90;;;;;;4878439;29;20459;-69
2021/04/29 09:43:34;;;;;;;31.60;21.35;;;28.20;40.70;;;;;;4873699;29;20044;-69
2021/04/29 09:46:03;;;;;;;28.00;19.30;;;28.40;39.60;;;;;;4883098;29;20065;-69
2021/04/29 09:48:38;;;;;;;33.80;19.42;;;28.50;39.00;;;;;;4880935;29;20049;-69
2021/04/29 09:51:05;;;;;;;34.42;19.17;;;28.50;38.80;;;;;;4876556;29;20082;-70
2021/04/29 09:53:39;;;;;;;33.35;20.73;;;28.50;38.20;;;;;;4885204;29;20032;-70
2021/04/29 09:56:11;;;;;;;39.00;22.02;;;28.20;38.90;;;;;;4883800;29;20289;-70
2021/04/29 09:58:37;;;;;;;31.52;20.52;;;28.20;39.50;;;;;;4871033;29;20348;-70
2021/04/29 10:01:05;;;;;;;30.77;20.13;;;28.20;38.70;;;;;;4871919;29;20100;-70
2021/04/29 10:03:32;;;;;;;32.28;19.42;;;28.00;39.40;;;;;;4871516;29;20030;-70
2021/04/29 10:05:58;;;;;;;;;;;28.00;39.10;;;;;;4877451;29;20029;-70
2021/04/29 10:08:26;;;;;;;28.35;19.92;;;27.80;39.10;;;;;;4885450;29;19915;-70
2021/04/29 10:10:55;;;;;;;38.92;22.80;;;27.80;39.20;;;;;;4875545;29;20033;-70
2021/04/29 10:13:31;;;;;;;27.23;19.00;;;27.90;40.50;;;;;;4886000;29;20105;-70
2021/04/29 10:15:57;;;;;;;28.60;19.17;;;28.20;37.50;;;;;;4871431;29;20046;-70
2021/04/29 10:18:24;;;;;;;25.60;18.27;;;28.00;38.70;;;;;;4875716;29;20073;-70
2021/04/29 10:20:52;;;;;;;30.42;22.75;;;27.30;38.50;;;;;;4870018;29;20045;-69
2021/04/29 10:23:20;;;;;;;32.15;21.75;;;28.00;39.60;;;;;;4874121;29;20044;-69
2021/04/29 10:25:54;;;;;;;30.55;21.58;;;29.20;38.90;;;;;;4887556;29;20033;-69
2021/04/29 10:28:37;;;;;;;26.88;19.80;;;29.00;37.90;;;;;;4873293;29;20037;-69
2021/04/29 10:31:15;;;;;;;30.13;19.65;;;29.30;36.80;;;;;;4885021;29;20029;-70
2021/04/29 10:34:01;;;;;;;33.25;20.55;;;30.10;37.10;;;;;;4882562;29;20108;-69
2021/04/29 10:36:41;;;;;;;34.85;21.73;;;31.00;35.50;;;;;;4891907;29;20089;-70
2021/04/29 10:39:24;;;;;;;24.98;19.70;;;31.40;34.00;;;;;;4892216;29;20063;-70
2021/04/29 10:42:07;;;;;;;29.42;19.83;;;30.80;34.10;;;;;;4888570;29;20037;-72
2021/04/29 10:44:41;;;;;;;42.17;21.48;;;30.40;33.90;;;;;;4884442;29;20021;-71
2021/04/29 10:47:07;;;;;;;34.80;20.90;;;29.80;36.10;;;;;;4879370;29;20053;-71
2021/04/29 10:49:37;;;;;;;28.13;19.03;;;30.00;35.30;;;;;;4887603;29;20032;-71
2021/04/29 10:52:03;;;;;;;25.92;18.25;;;30.50;36.50;;;;;;4887474;29;20029;-71
2021/04/29 10:54:30;;;;;;;26.00;18.90;;;30.90;34.80;;;;;;4892037;29;20065;-71
2021/04/29 10:57:00;;;;;;;;;;;31.00;35.20;;;;;;4891623;29;20088;-71
2021/04/29 10:59:41;;;;;;;28.40;18.90;;;31.10;33.10;;;;;;4873513;29;19983;-71
2021/04/29 11:02:31;;;;;;;27.95;17.33;;;30.70;34.20;;;;;;4887984;29;20096;-71
2021/04/29 11:04:57;;;;;;;27.27;17.88;;;30.90;36.00;;;;;;4873307;29;20036;-71
2021/04/29 11:07:26;;;;;;;22.80;17.45;;;31.20;34.80;;;;;;4872733;29;20056;-71
2021/04/29 11:10:08;;;;;;;23.00;16.00;;;31.60;34.00;;;;;;4872613;29;20440;-71
2021/04/29 11:12:43;;;;;;;24.58;16.45;;;31.70;33.60;;;;;;4883695;29;20090;-71
2021/04/29 11:15:28;;;;;;;26.35;17.30;;;32.10;32.60;;;;;;4885000;29;20038;-71
2021/04/29 11:18:10;;;;;;;23.43;17.07;;;31.90;31.80;;;;;;4884000;29;20336;-71
2021/04/29 11:20:50;;;;;;;22.65;16.98;;;32.00;33.50;;;;;;4883638;29;20120;-71
2021/04/29 11:23:27;;;;;;;24.23;16.08;;;32.00;31.80;;;;;;4871415;29;20270;-71
2021/04/29 11:26:06;;;;;;;20.00;13.95;;;31.40;32.20;;;;;;4885330;29;20376;-71
2021/04/29 11:28:32;;;;;;;19.80;14.15;;;31.50;32.70;;;;;;4877169;29;20352;-71
2021/04/29 11:30:59;;;;;;;26.23;12.93;;;31.70;31.20;;;;;;4872376;29;20245;-71
2021/04/29 11:33:32;;;;;;;;;;;32.00;31.80;;;;;;4888437;29;20343;-71
2021/04/29 11:35:58;;;;;;;18.00;13.68;;;31.90;30.90;;;;;;4889450;29;20191;-71
2021/04/29 11:38:24;;;;;;;19.65;14.88;;;32.00;31.90;;;;;;4873596;29;20033;-71
2021/04/29 11:40:50;;;;;;;17.90;12.27;;;32.10;32.40;;;;;;4889139;29;20041;-71
2021/04/29 11:43:15;;;;;;;21.47;12.33;;;32.20;30.60;;;;;;4872441;29;20071;-71
2021/04/29 11:45:42;;;;;;;21.07;11.40;;;31.60;30.30;;;;;;4887872;29;20029;-71
2021/04/29 11:48:11;;;;;;;22.13;12.07;;;31.70;32.00;;;;;;4883119;29;20084;-71
2021/04/29 11:50:50;;;;;;;20.33;10.50;;;31.60;32.10;;;;;;4885068;29;20081;-71
2021/04/29 11:53:24;;;;;;;17.70;10.05;;;32.10;31.50;;;;;;4884521;29;20130;-71
2021/04/29 11:55:56;;;;;;;16.25;8.07;;;32.30;30.10;;;;;;4881513;29;20082;-72
2021/04/29 11:58:21;;;;;;;15.20;11.90;;;32.20;30.00;;;;;;4872476;29;20092;-71
2021/04/29 12:00:50;;;;;;;14.57;9.30;;;32.10;30.70;;;;;;4878618;29;20357;-71
2021/04/29 12:03:17;;;;;;;17.85;9.77;;;32.20;31.00;;;;;;4881496;29;20038;-71
2021/04/29 12:05:48;;;;;;;17.75;10.85;;;32.00;29.90;;;;;;4881671;29;20053;-72
2021/04/29 12:08:22;;;;;;;18.05;11.88;;;31.40;31.10;;;;;;4877603;29;20025;-71
2021/04/29 12:10:56;;;;;;;24.80;11.13;;;31.60;32.60;;;;;;4887967;29;20029;-72
2021/04/29 12:13:32;;;;;;;12.73;9.43;;;31.60;32.20;;;;;;4882997;29;20074;-71
2021/04/29 12:15:59;;;;;;;;;;;31.40;31.00;;;;;;4880542;29;20329;-71
2021/04/29 12:18:25;;;;;;;18.15;12.75;;;31.30;31.00;;;;;;4889802;29;19929;-71
2021/04/29 12:20:51;;;;;;;21.70;11.73;;;30.90;33.10;;;;;;4888870;29;20624;-71
2021/04/29 12:23:17;;;;;;;20.07;11.27;;;30.40;33.00;;;;;;4888800;29;20116;-71
2021/04/29 12:26:00;;;;;;;18.17;11.80;;;29.90;33.20;;;;;;4878566;29;20029;-71
2021/04/29 12:28:32;;;;;;;17.33;11.27;;;29.50;32.60;;;;;;4892305;29;20382;-71
2021/04/29 12:31:10;;;;;;;19.15;10.52;;;29.10;34.10;;;;;;4885544;29;20048;-71
2021/04/29 12:33:36;;;;;;;18.92;11.52;;;28.80;35.30;;;;;;4870962;29;20026;-71
2021/04/29 12:36:09;;;;;;;23.17;11.43;;;28.50;36.80;;;;;;4877964;29;20354;-71
2021/04/29 12:38:35;;;;;;;13.80;10.00;;;28.20;35.00;;;;;;4882583;29;20029;-71
2021/04/29 12:41:05;;;;;;;18.77;10.27;;;28.10;36.10;;;;;;4883092;29;20041;-71
2021/04/29 12:43:31;;;;;;;12.85;7.82;;;27.60;35.60;;;;;;4879039;29;20088;-71
2021/04/29 12:45:57;;;;;;;17.17;8.87;;;27.50;36.10;;;;;;4887852;29;20033;-71
2021/04/29 12:48:29;;;;;;;13.95;9.00;;;27.20;35.60;;;;;;4881020;29;20057;-71
2021/04/29 12:51:05;;;;;;;19.75;9.23;;;27.20;36.00;;;;;;4882962;29;20246;-71
2021/04/29 12:53:32;;;;;;;24.08;9.50;;;26.80;36.20;;;;;;4887055;29;20387;-71
2021/04/29 12:55:58;;;;;;;20.67;10.32;;;26.80;37.70;;;;;;4879704;29;20042;-71
2021/04/29 12:58:26;;;;;;;16.02;9.05;;;26.80;36.90;;;;;;4881495;29;20026;-71
2021/04/29 13:00:52;;;;;;;17.45;9.15;;;26.70;36.90;;;;;;4878978;29;20064;-71
2021/04/29 13:03:18;;;;;;;20.67;10.48;;;26.60;37.10;;;;;;4870572;29;20073;-71
2021/04/29 13:05:46;;;;;;;28.10;10.20;;;26.50;36.80;;;;;;4884319;29;20238;-71
2021/04/29 13:08:12;;;;;;;23.50;10.45;;;26.30;37.20;;;;;;4881564;29;20029;-71
2021/04/29 13:10:43;;;;;;;21.50;9.45;;;26.40;37.40;;;;;;4882926;29;20016;-72
2021/04/29 13:13:09;;;;;;;21.35;9.93;;;26.10;38.10;;;;;;4886780;29;20044;-70
2021/04/29 13:15:35;;;;;;;29.35;9.65;;;26.30;37.60;;;;;;4878554;29;20038;-71
2021/04/29 13:18:01;;;;;;;19.55;11.02;;;26.30;38.30;;;;;;4870081;29;20273;-71
2021/04/29 13:20:30;;;;;;;18.25;9.68;;;26.30;38.10;;;;;;4869686;29;20234;-71
2021/04/29 13:22:56;;;;;;;24.27;10.57;;;26.20;38.40;;;;;;4881504;29;20290;-71
2021/04/29 13:25:24;;;;;;;19.73;11.25;;;26.10;39.10;;;;;;4870778;29;20037;-70
2021/04/29 13:27:51;;;;;;;29.42;10.57;;;26.20;38.20;;;;;;4877180;29;20037;-71
2021/04/29 13:30:21;;;;;;;21.30;10.68;;;26.00;39.40;;;;;;4887688;29;20033;-70
2021/04/29 13:32:47;;;;;;;16.75;9.02;;;26.00;38.70;;;;;;4871088;29;20029;-71
2021/04/29 13:35:13;;;;;;;23.45;9.55;;;25.90;38.90;;;;;;4870651;29;20081;-71
2021/04/29 13:37:40;;;;;;;19.70;11.32;;;25.90;38.20;;;;;;4880966;29;20040;-71
2021/04/29 13:40:10;;;;;;;18.52;10.02;;;25.80;37.80;;;;;;4879311;29;20033;-70
2021/04/29 13:42:36;;;;;;;20.35;8.57;;;25.70;38.20;;;;;;4881813;29;20343;-72
2021/04/29 13:45:04;;;;;;;24.70;8.95;;;25.70;38.50;;;;;;4870425;29;20025;-71
2021/04/29 13:47:30;;;;;;;20.98;9.40;;;25.60;39.50;;;;;;4872067;29;20061;-70
2021/04/29 13:49:56;;;;;;;18.33;9.05;;;25.50;38.70;;;;;;4871328;29;20043;-71
2021/04/29 13:52:21;;;;;;;19.33;9.90;;;25.50;40.30;;;;;;4875680;29;20410;-70
2021/04/29 13:54:47;;;;;;;20.75;8.05;;;25.60;38.70;;;;;;4890217;29;20036;-71
2021/04/29 13:57:13;;;;;;;18.25;7.65;;;25.70;39.00;;;;;;4879308;29;20069;-70
2021/04/29 13:59:41;;;;;;;18.63;7.80;;;25.80;39.40;;;;;;4887093;29;20235;-70
2021/04/29 14:02:06;;;;;;;14.65;7.97;;;25.90;39.20;;;;;;4880234;29;20084;-70
2021/04/29 14:04:33;;;;;;;14.63;7.82;;;25.90;38.30;;;;;;4877302;29;20230;-70
2021/04/29 14:06:59;;;;;;;16.58;7.93;;;25.90;39.20;;;;;;4884076;29;20089;-71
2021/04/29 14:09:24;;;;;;;13.93;7.70;;;25.90;38.20;;;;;;4870031;29;20025;-71
2021/04/29 14:11:50;;;;;;;11.85;8.35;;;25.80;38.80;;;;;;4884565;29;20029;-71
2021/04/29 14:14:17;;;;;;;21.85;10.70;;;25.80;39.20;;;;;;4886837;29;20035;-71
2021/04/29 14:16:44;;;;;;;16.55;9.82;;;25.80;38.60;;;;;;4892535;29;20035;-71
2021/04/29 14:19:10;;;;;;;17.63;9.23;;;25.90;38.60;;;;;;4876931;29;20383;-71
2021/04/29 14:21:36;;;;;;;13.95;7.57;;;25.90;39.10;;;;;;4875612;29;20029;-70
2021/04/29 14:24:02;;;;;;;24.77;7.07;;;25.90;38.70;;;;;;4875146;29;20047;-71
2021/04/29 14:26:27;;;;;;;11.20;6.93;;;25.80;39.30;;;;;;4872156;29;20071;-71
2021/04/29 14:28:53;;;;;;;13.30;8.43;;;25.70;39.50;;;;;;4871389;29;20045;-70
2021/04/29 14:31:19;;;;;;;16.08;8.32;;;25.40;38.10;;;;;;4881542;29;20218;-73
2021/04/29 14:33:45;;;;;;;15.48;7.85;;;25.40;39.10;;;;;;4887928;29;20055;-75
2021/04/29 14:36:11;;;;;;;13.93;7.13;;;25.20;39.60;;;;;;4887043;29;20033;-72
2021/04/29 14:38:36;;;;;;;15.75;6.40;;;25.20;39.00;;;;;;4879243;29;20033;-71
2021/04/29 14:41:03;;;;;;;15.38;6.53;;;25.10;40.10;;;;;;4875947;29;20038;-73
2021/04/29 14:43:29;;;;;;;12.85;6.32;;;25.10;40.10;;;;;;4879415;29;20100;-72
2021/04/29 14:45:55;;;;;;;12.57;6.93;;;25.10;39.90;;;;;;4883323;29;20228;-72
2021/04/29 14:48:21;;;;;;;12.33;5.97;;;25.10;39.60;;;;;;4882393;29;20049;-72
2021/04/29 14:50:48;;;;;;;10.50;5.97;;;25.00;39.80;;;;;;4880991;29;20289;-72
2021/04/29 14:53:14;;;;;;;;;;;24.90;41.10;;;;;;4898115;29;20056;-73
2021/04/29 14:55:40;;;;;;;10.43;5.40;;;24.90;39.80;;;;;;4880864;29;19908;-73
2021/04/29 14:58:06;;;;;;;9.57;5.07;;;24.90;39.20;;;;;;4886556;29;20068;-74
2021/04/29 15:00:33;;;;;;;15.48;5.97;;;24.80;39.50;;;;;;4884324;29;20037;-72
2021/04/29 15:03:01;;;;;;;13.45;6.22;;;24.80;40.00;;;;;;4882221;29;20080;-71
2021/04/29 15:05:28;;;;;;;13.82;5.63;;;24.80;39.90;;;;;;4885690;29;20029;-71
2021/04/29 15:07:54;;;;;;;8.98;5.20;;;24.80;40.20;;;;;;4884275;29;20025;-71
2021/04/29 15:10:20;;;;;;;25.05;4.63;;;24.90;40.70;;;;;;4888655;29;20095;-71
2021/04/29 15:12:46;;;;;;;7.38;4.68;;;25.00;40.10;;;;;;4889356;29;20033;-71
2021/04/29 15:15:13;;;;;;;8.48;5.25;;;24.90;39.90;;;;;;4890184;29;20032;-72
2021/04/29 15:17:40;;;;;;;10.43;5.78;;;24.80;39.50;;;;;;4888817;29;20036;-72